General WM J Fox Airfield
KWJF : now visible

Airfield :











YOU CAN JOIN US ON...

 
LOGIN :

Register | Disclaimer

   EN    FR    IT 

 









Legend :    VFR   Marginal VFR   IFR   Intensive IFR   Very Intensive IFR
Visi :
Ceiling :
>= 8 km
>= 3000ft
5 to 8 km
1000 to 3000 ft
1500m to 5 km
500 to 1000 ft
800 to 1500m
200 to 500 ft
< 800m
< 200 ft
Symbols :   Thunderstorms  Fog  Heavy snow  Heavy precipitations  Wind > 20 kt







- Airport Elevation : 2351 ft


KWJF - General WM J Fox

CURRENT METAR :
  • 170756Z AUTO 27018KT 10SM CLR 16/09 A2996 RMK AO2 SLP132 T01610094 402940161

EXPIRED METARs :
  • 170656Z AUTO 27021G27KT 10SM CLR 17/10 A2995 RMK AO2 PK WND 28027/0654 SLP126 T01670100
  • 170556Z AUTO 27022KT 10SM CLR 17/11 A2995 RMK AO2 PK WND 25030/0515 SLP127 T01670111 10278 20167 51012

TAF KWJF
Valid from the 17 at 07:00 until the 18 at 06:00 UTC


170638Z 1707/1806 26020KT P6SM SKC
FM170900 26012KT P6SM SKC
FM171500 26006KT P6SM SKC
FM172100 26015G22KT P6SM SKC
FM180200 26015KT P6SM SKC
No reported NOTAMs for that airfield.



MET'MAP, your aeronautical weather chart ! - Copyright ORBIFLY December 2007 - Disclaimer

ORBIFLY MET'MAP TEAM :

Programming & Development : Alexandra Zaïnal
Concept & Development : Baudouin d'Aumeries
Co-Development & Prog : Marc-Olivier Méhu
Technical & hardware support : Manuel Goepfert

Contact : metmap@orbifly.com




SOURCES & CREDITS :

   NOAA       Earth
Advisory